PWSweather.com
Personal Weather Stations
Station Observations
VPOKROGLO
Kal Nad Kanalom, PrimorskaSI

Kal Nad KanalomPrimorskaSI

Lat: 46.072, Lon: 13.734

Elevation: 2526

Station Type: WS-2355

http://www.okroglovreme.com

Latest ConditionsUpdated 11:45:00 PM GMT+01:01 Wednesday, Aug 15, 2018
Currently Today's Max Today's Min Today's Average
Temperature 65.3°F18.5°C 77.7°F25.4°C 62.2°F16.8°C 68.4°F20.2°C
Dew Point 54.1°F12.3°C 59.2°F15.1°C 50.7°F10.4°C 54.5°F12.5°C
Winds 4.8 mph NE7.7 kmh NE 7.2 mph -11.6 kmh - - 3.6 mph 5.8 kmh
Wind Gusts 11.9 mph19.2 kmh 18.6 mph29.9 kmh - -
Humidity 67% 80% 49% 62%
Pressure 30.02 in1016.6 mb 30.02 in1016.6 mb 29.91 in1012.9 mb -
Hour Temp Dew Point Humidity Winds Wind Gusts Pressure Precip Precip Rate Daily Precip Total
11:45 PM 65.3°F18.5°C 54.1°F12.3°C 67% 4.8 mph NE7.7 kmh NE 11.9 mph19.2 kmh 30.02 in1016.6 mb 0.00 in0.0 mm 0.00 in0.0 mm 0.00 in0.0 mm
11:30 PM 65.3°F18.5°C 54.1°F12.3°C 67% 4.3 mph NE6.9 kmh NE 12.8 mph20.6 kmh 30.02 in1016.6 mb 0.00 in0.0 mm 0.00 in0.0 mm 0.00 in0.0 mm
11:15 PM 65.5°F18.6°C 54.2°F12.3°C 67% 4.4 mph ENE7.1 kmh ENE 13.0 mph20.9 kmh 30.01 in1016.3 mb 0.00 in0.0 mm 0.00 in0.0 mm 0.00 in0.0 mm
11:00 PM 65.8°F18.8°C 54.2°F12.3°C 66% 4.2 mph NE6.8 kmh NE 16.8 mph27.0 kmh 30.01 in1016.3 mb 0.00 in0.0 mm 0.00 in0.0 mm 0.00 in0.0 mm
10:45 PM 66.0°F18.9°C 53.9°F12.2°C 65% 5.7 mph NE9.2 kmh NE 18.6 mph29.9 kmh 30.00 in1015.9 mb 0.00 in0.0 mm 0.00 in0.0 mm 0.00 in0.0 mm
10:30 PM 66.0°F18.9°C 53.9°F12.2°C 65% 5.1 mph NE8.2 kmh NE 17.7 mph28.5 kmh 30.00 in1015.9 mb 0.00 in0.0 mm 0.00 in0.0 mm 0.00 in0.0 mm
10:15 PM 66.0°F18.9°C 53.5°F11.9°C 64% 3.8 mph NE6.1 kmh NE 10.5 mph16.9 kmh 29.99 in1015.6 mb 0.00 in0.0 mm 0.00 in0.0 mm 0.00 in0.0 mm
10:00 PM 66.2°F19.0°C 53.7°F12.1°C 64% 4.5 mph NE7.2 kmh NE 14.8 mph23.8 kmh 29.99 in1015.6 mb 0.00 in0.0 mm 0.00 in0.0 mm 0.00 in0.0 mm
09:45 PM 66.6°F19.2°C 53.6°F12.0°C 63% 5.2 mph NE8.4 kmh NE 13.4 mph21.6 kmh 30.00 in1015.9 mb 0.00 in0.0 mm 0.00 in0.0 mm 0.00 in0.0 mm
09:30 PM 66.7°F19.3°C 53.3°F11.8°C 62% 5.5 mph NE8.9 kmh NE 18.3 mph29.5 kmh 30.00 in1015.9 mb 0.00 in0.0 mm 0.00 in0.0 mm 0.00 in0.0 mm
09:15 PM 67.1°F19.5°C 53.2°F11.8°C 61% 6.0 mph NE9.7 kmh NE 15.4 mph24.8 kmh 29.99 in1015.6 mb 0.00 in0.0 mm 0.00 in0.0 mm 0.00 in0.0 mm
09:00 PM 66.9°F19.4°C 53.5°F11.9°C 62% 5.5 mph NE8.9 kmh NE 15.7 mph25.3 kmh 29.98 in1015.2 mb 0.00 in0.0 mm 0.00 in0.0 mm 0.00 in0.0 mm
08:45 PM 66.7°F19.3°C 53.3°F11.8°C 62% 5.3 mph ENE8.5 kmh ENE 16.6 mph26.7 kmh 29.98 in1015.2 mb 0.00 in0.0 mm 0.00 in0.0 mm 0.00 in0.0 mm
08:30 PM 66.7°F19.3°C 53.7°F12.1°C 63% 3.2 mph E5.1 kmh E 12.1 mph19.5 kmh 29.99 in1015.6 mb 0.00 in0.0 mm 0.00 in0.0 mm 0.00 in0.0 mm
08:15 PM 66.7°F19.3°C 53.7°F12.1°C 63% 2.8 mph ENE4.5 kmh ENE 9.6 mph15.4 kmh 29.98 in1015.2 mb 0.00 in0.0 mm 0.00 in0.0 mm 0.00 in0.0 mm
08:00 PM 66.7°F19.3°C 54.2°F12.3°C 64% 2.3 mph SSE3.7 kmh SSE 7.2 mph11.6 kmh 29.98 in1015.2 mb 0.00 in0.0 mm 0.00 in0.0 mm 0.00 in0.0 mm
07:45 PM 67.3°F19.6°C 54.3°F12.4°C 63% 1.9 mph ESE3.1 kmh ESE 6.7 mph10.8 kmh 29.97 in1014.9 mb 0.00 in0.0 mm 0.00 in0.0 mm 0.00 in0.0 mm
07:30 PM 67.6°F19.8°C 54.2°F12.3°C 62% 2.7 mph SE4.3 kmh SE 8.9 mph14.3 kmh 29.96 in1014.6 mb 0.00 in0.0 mm 0.00 in0.0 mm 0.00 in0.0 mm
07:15 PM 68.2°F20.1°C 54.2°F12.3°C 61% 2.5 mph NE4.0 kmh NE 9.2 mph14.8 kmh 29.96 in1014.6 mb 0.00 in0.0 mm 0.00 in0.0 mm 0.00 in0.0 mm
07:00 PM 68.7°F20.4°C 54.3°F12.4°C 60% 2.7 mph ESE4.3 kmh ESE 10.3 mph16.6 kmh 29.96 in1014.6 mb 0.00 in0.0 mm 0.00 in0.0 mm 0.00 in0.0 mm
06:45 PM 69.4°F20.8°C 54.5°F12.5°C 59% 3.4 mph ENE5.5 kmh ENE 13.2 mph21.2 kmh 29.96 in1014.6 mb 0.00 in0.0 mm 0.00 in0.0 mm 0.00 in0.0 mm
06:30 PM 70.0°F21.1°C 55.0°F12.8°C 59% 2.5 mph ENE4.0 kmh ENE 11.4 mph18.3 kmh 29.96 in1014.6 mb 0.00 in0.0 mm 0.00 in0.0 mm 0.00 in0.0 mm
06:15 PM 70.5°F21.4°C 55.0°F12.8°C 58% 4.3 mph NE6.9 kmh NE 13.9 mph22.4 kmh 29.96 in1014.6 mb 0.00 in0.0 mm 0.00 in0.0 mm 0.00 in0.0 mm
06:00 PM 71.2°F21.8°C 55.7°F13.2°C 58% 4.1 mph NE6.6 kmh NE 10.5 mph16.9 kmh 29.95 in1014.2 mb 0.00 in0.0 mm 0.00 in0.0 mm 0.00 in0.0 mm
05:45 PM 71.4°F21.9°C 55.9°F13.3°C 58% 4.5 mph NE7.2 kmh NE 13.9 mph22.4 kmh 29.95 in1014.2 mb 0.00 in0.0 mm 0.00 in0.0 mm 0.00 in0.0 mm
05:30 PM 70.9°F21.6°C 55.4°F13.0°C 58% 3.7 mph ENE6.0 kmh ENE 10.5 mph16.9 kmh 29.95 in1014.2 mb 0.00 in0.0 mm 0.00 in0.0 mm 0.00 in0.0 mm
05:15 PM 70.7°F21.5°C 55.2°F12.9°C 58% 2.9 mph NE4.7 kmh NE 13.9 mph22.4 kmh 29.96 in1014.6 mb 0.00 in0.0 mm 0.00 in0.0 mm 0.00 in0.0 mm
05:00 PM 70.3°F21.3°C 54.9°F12.7°C 58% 2.4 mph SE3.9 kmh SE 8.5 mph13.7 kmh 29.96 in1014.6 mb 0.00 in0.0 mm 0.00 in0.0 mm 0.00 in0.0 mm
04:45 PM 70.7°F21.5°C 54.7°F12.6°C 57% 3.5 mph NE5.6 kmh NE 10.3 mph16.6 kmh 29.95 in1014.2 mb 0.00 in0.0 mm 0.00 in0.0 mm 0.00 in0.0 mm
04:30 PM 70.9°F21.6°C 54.4°F12.4°C 56% 4.8 mph NE7.7 kmh NE 14.5 mph23.3 kmh 29.96 in1014.6 mb 0.00 in0.0 mm 0.00 in0.0 mm 0.00 in0.0 mm
04:15 PM 70.9°F21.6°C 54.9°F12.7°C 57% 2.0 mph SE3.2 kmh SE 7.2 mph11.6 kmh 29.96 in1014.6 mb 0.00 in0.0 mm 0.00 in0.0 mm 0.00 in0.0 mm
04:00 PM 70.9°F21.6°C 54.9°F12.7°C 57% 3.2 mph NE5.1 kmh NE 9.6 mph15.4 kmh 29.96 in1014.6 mb 0.00 in0.0 mm 0.00 in0.0 mm 0.00 in0.0 mm
03:45 PM 71.2°F21.8°C 54.7°F12.6°C 56% 3.0 mph E4.8 kmh E 8.3 mph13.4 kmh 29.96 in1014.6 mb 0.00 in0.0 mm 0.00 in0.0 mm 0.00 in0.0 mm
03:30 PM 71.8°F22.1°C 55.2°F12.9°C 56% 3.3 mph E5.3 kmh E 8.9 mph14.3 kmh 29.96 in1014.6 mb 0.00 in0.0 mm 0.00 in0.0 mm 0.00 in0.0 mm
03:15 PM 73.0°F22.8°C 55.4°F13.0°C 54% 3.9 mph NE6.3 kmh NE 13.0 mph20.9 kmh 29.96 in1014.6 mb 0.00 in0.0 mm 0.00 in0.0 mm 0.00 in0.0 mm
03:00 PM 75.4°F24.1°C 56.5°F13.6°C 52% 7.2 mph NNE11.6 kmh NNE 14.8 mph23.8 kmh 29.95 in1014.2 mb 0.00 in0.0 mm 0.00 in0.0 mm 0.00 in0.0 mm
02:45 PM 75.6°F24.2°C 56.7°F13.7°C 52% 3.5 mph E5.6 kmh E 9.4 mph15.1 kmh 29.96 in1014.6 mb 0.00 in0.0 mm 0.00 in0.0 mm 0.00 in0.0 mm
02:30 PM 75.7°F24.3°C 55.8°F13.2°C 50% 4.0 mph NNE6.4 kmh NNE 13.6 mph21.9 kmh 29.95 in1014.2 mb 0.00 in0.0 mm 0.00 in0.0 mm 0.00 in0.0 mm
02:15 PM 76.6°F24.8°C 56.6°F13.7°C 49% 3.5 mph N5.6 kmh N 10.5 mph16.9 kmh 29.96 in1014.6 mb 0.00 in0.0 mm 0.00 in0.0 mm 0.00 in0.0 mm
02:00 PM 76.3°F24.6°C 57.9°F14.4°C 53% 3.3 mph NE5.3 kmh NE 10.5 mph16.9 kmh 29.96 in1014.6 mb 0.00 in0.0 mm 0.00 in0.0 mm 0.00 in0.0 mm
01:45 PM 76.1°F24.5°C 57.2°F14.0°C 52% 4.0 mph NE6.4 kmh NE 13.6 mph21.9 kmh 29.96 in1014.6 mb 0.00 in0.0 mm 0.00 in0.0 mm 0.00 in0.0 mm
01:30 PM 76.1°F24.5°C 58.2°F14.6°C 54% 3.7 mph NNE6.0 kmh NNE 10.5 mph16.9 kmh 29.96 in1014.6 mb 0.00 in0.0 mm 0.00 in0.0 mm 0.00 in0.0 mm
01:15 PM 76.6°F24.8°C 57.2°F14.0°C 51% 2.9 mph SE4.7 kmh SE 10.3 mph16.6 kmh 29.96 in1014.6 mb 0.00 in0.0 mm 0.00 in0.0 mm 0.00 in0.0 mm
01:00 PM 76.8°F24.9°C 58.4°F14.7°C 53% 2.4 mph E3.9 kmh E 9.6 mph15.4 kmh 29.96 in1014.6 mb 0.00 in0.0 mm 0.00 in0.0 mm 0.00 in0.0 mm
12:45 PM 77.7°F25.4°C 59.2°F15.1°C 53% 2.5 mph NNE4.0 kmh NNE 7.6 mph12.2 kmh 29.96 in1014.6 mb 0.00 in0.0 mm 0.00 in0.0 mm 0.00 in0.0 mm
12:30 PM 76.3°F24.6°C 57.9°F14.4°C 53% 3.3 mph NE5.3 kmh NE 11.6 mph18.7 kmh 29.96 in1014.6 mb 0.00 in0.0 mm 0.00 in0.0 mm 0.00 in0.0 mm
12:15 PM 75.0°F23.9°C 56.2°F13.4°C 52% 5.4 mph NNE8.7 kmh NNE 11.9 mph19.2 kmh 29.95 in1014.2 mb 0.00 in0.0 mm 0.00 in0.0 mm 0.00 in0.0 mm
12:00 PM 75.0°F23.9°C 57.2°F14.0°C 54% 6.4 mph N10.3 kmh N 14.3 mph23.0 kmh 29.96 in1014.6 mb 0.00 in0.0 mm 0.00 in0.0 mm 0.00 in0.0 mm
11:45 AM 74.8°F23.8°C 57.1°F13.9°C 54% 5.3 mph NE8.5 kmh NE 12.8 mph20.6 kmh 29.96 in1014.6 mb 0.00 in0.0 mm 0.00 in0.0 mm 0.00 in0.0 mm
11:30 AM 75.4°F24.1°C 56.5°F13.6°C 52% 4.5 mph N7.2 kmh N 16.8 mph27.0 kmh 29.96 in1014.6 mb 0.00 in0.0 mm 0.00 in0.0 mm 0.00 in0.0 mm
11:15 AM 75.4°F24.1°C 57.6°F14.2°C 54% 1.9 mph E3.1 kmh E 7.2 mph11.6 kmh 29.96 in1014.6 mb 0.00 in0.0 mm 0.00 in0.0 mm 0.00 in0.0 mm
11:00 AM 74.8°F23.8°C 56.6°F13.7°C 53% 3.3 mph N5.3 kmh N 8.9 mph14.3 kmh 29.96 in1014.6 mb 0.00 in0.0 mm 0.00 in0.0 mm 0.00 in0.0 mm
10:45 AM 73.8°F23.2°C 56.6°F13.7°C 55% 3.1 mph ENE5.0 kmh ENE 10.5 mph16.9 kmh 29.96 in1014.6 mb 0.00 in0.0 mm 0.00 in0.0 mm 0.00 in0.0 mm
10:30 AM 73.2°F22.9°C 56.1°F13.4°C 55% 3.1 mph NE5.0 kmh NE 12.5 mph20.1 kmh 29.96 in1014.6 mb 0.00 in0.0 mm 0.00 in0.0 mm 0.00 in0.0 mm
10:15 AM 73.0°F22.8°C 55.4°F13.0°C 54% 3.9 mph NE6.3 kmh NE 10.5 mph16.9 kmh 29.96 in1014.6 mb 0.00 in0.0 mm 0.00 in0.0 mm 0.00 in0.0 mm
10:00 AM 72.1°F22.3°C 54.6°F12.6°C 54% 3.6 mph NE5.8 kmh NE 15.7 mph25.3 kmh 29.96 in1014.6 mb 0.00 in0.0 mm 0.00 in0.0 mm 0.00 in0.0 mm
09:45 AM 71.8°F22.1°C 54.7°F12.6°C 55% 4.2 mph NE6.8 kmh NE 17.0 mph27.4 kmh 29.96 in1014.6 mb 0.00 in0.0 mm 0.00 in0.0 mm 0.00 in0.0 mm
09:30 AM 71.2°F21.8°C 54.2°F12.3°C 55% 4.6 mph E7.4 kmh E 10.3 mph16.6 kmh 29.95 in1014.2 mb 0.00 in0.0 mm 0.00 in0.0 mm 0.00 in0.0 mm
09:15 AM 70.9°F21.6°C 54.4°F12.4°C 56% 3.9 mph NE6.3 kmh NE 12.1 mph19.5 kmh 29.95 in1014.2 mb 0.00 in0.0 mm 0.00 in0.0 mm 0.00 in0.0 mm
09:00 AM 69.3°F20.7°C 52.9°F11.6°C 56% 4.3 mph NE6.9 kmh NE 12.1 mph19.5 kmh 29.95 in1014.2 mb 0.00 in0.0 mm 0.00 in0.0 mm 0.00 in0.0 mm
08:45 AM 68.4°F20.2°C 52.5°F11.4°C 57% 5.1 mph NE8.2 kmh NE 13.0 mph20.9 kmh 29.95 in1014.2 mb 0.00 in0.0 mm 0.00 in0.0 mm 0.00 in0.0 mm
08:30 AM 67.6°F19.8°C 51.9°F11.1°C 57% 4.3 mph NE6.9 kmh NE 13.2 mph21.2 kmh 29.94 in1013.9 mb 0.00 in0.0 mm 0.00 in0.0 mm 0.00 in0.0 mm
08:15 AM 67.3°F19.6°C 51.0°F10.6°C 56% 4.9 mph ENE7.9 kmh ENE 16.1 mph25.9 kmh 29.94 in1013.9 mb 0.00 in0.0 mm 0.00 in0.0 mm 0.00 in0.0 mm
08:00 AM 66.7°F19.3°C 51.5°F10.8°C 57% 3.8 mph NNE6.1 kmh NNE 12.3 mph19.8 kmh 29.94 in1013.9 mb 0.00 in0.0 mm 0.00 in0.0 mm 0.00 in0.0 mm
07:45 AM 66.4°F19.1°C 51.2°F10.7°C 58% 2.9 mph NE4.7 kmh NE 10.5 mph16.9 kmh 29.94 in1013.9 mb 0.00 in0.0 mm 0.00 in0.0 mm 0.00 in0.0 mm
07:30 AM 66.4°F19.1°C 51.2°F10.7°C 58% 4.0 mph ESE6.4 kmh ESE 10.7 mph17.2 kmh 29.93 in1013.5 mb 0.00 in0.0 mm 0.00 in0.0 mm 0.00 in0.0 mm
07:15 AM 66.0°F18.9°C 51.3°F10.7°C 59% 3.6 mph SE5.8 kmh SE 7.8 mph12.6 kmh 29.93 in1013.5 mb 0.00 in0.0 mm 0.00 in0.0 mm 0.00 in0.0 mm
07:00 AM 65.8°F18.8°C 51.1°F10.6°C 59% 3.7 mph ESE6.0 kmh ESE 12.1 mph19.5 kmh 29.93 in1013.5 mb 0.00 in0.0 mm 0.00 in0.0 mm 0.00 in0.0 mm
06:45 AM 65.3°F18.5°C 51.1°F10.6°C 60% 3.9 mph ESE6.3 kmh ESE 12.8 mph20.6 kmh 29.93 in1013.5 mb 0.00 in0.0 mm 0.00 in0.0 mm 0.00 in0.0 mm
06:30 AM 65.1°F18.4°C 50.9°F10.5°C 60% 3.8 mph ESE6.1 kmh ESE 11.6 mph18.7 kmh 29.93 in1013.5 mb 0.00 in0.0 mm 0.00 in0.0 mm 0.00 in0.0 mm
06:15 AM 64.9°F18.3°C 50.7°F10.4°C 60% 3.4 mph NE5.5 kmh NE 10.3 mph16.6 kmh 29.93 in1013.5 mb 0.00 in0.0 mm 0.00 in0.0 mm 0.00 in0.0 mm
06:00 AM 64.8°F18.2°C 51.0°F10.6°C 61% 3.4 mph ENE5.5 kmh ENE 14.1 mph22.7 kmh 29.93 in1013.5 mb 0.00 in0.0 mm 0.00 in0.0 mm 0.00 in0.0 mm
05:45 AM 64.2°F17.9°C 50.9°F10.5°C 62% 4.0 mph E6.4 kmh E 13.0 mph20.9 kmh 29.92 in1013.2 mb 0.00 in0.0 mm 0.00 in0.0 mm 0.00 in0.0 mm
05:30 AM 64.2°F17.9°C 51.4°F10.8°C 63% 3.9 mph ENE6.3 kmh ENE 13.4 mph21.6 kmh 29.92 in1013.2 mb 0.00 in0.0 mm 0.00 in0.0 mm 0.00 in0.0 mm
05:15 AM 63.9°F17.7°C 51.9°F11.1°C 65% 3.0 mph ENE4.8 kmh ENE 13.6 mph21.9 kmh 29.92 in1013.2 mb 0.00 in0.0 mm 0.00 in0.0 mm 0.00 in0.0 mm
05:00 AM 64.0°F17.8°C 52.0°F11.1°C 65% 3.6 mph ESE5.8 kmh ESE 13.9 mph22.4 kmh 29.91 in1012.9 mb 0.00 in0.0 mm 0.00 in0.0 mm 0.00 in0.0 mm
04:45 AM 64.2°F17.9°C 52.6°F11.4°C 66% 2.0 mph ENE3.2 kmh ENE 7.6 mph12.2 kmh 29.91 in1012.9 mb 0.00 in0.0 mm 0.00 in0.0 mm 0.00 in0.0 mm
04:30 AM 64.0°F17.8°C 52.4°F11.3°C 66% 3.5 mph E5.6 kmh E 12.8 mph20.6 kmh 29.92 in1013.2 mb 0.00 in0.0 mm 0.00 in0.0 mm 0.00 in0.0 mm
04:15 AM 63.7°F17.6°C 53.3°F11.8°C 69% 3.1 mph E5.0 kmh E 11.2 mph18.0 kmh 29.91 in1012.9 mb 0.00 in0.0 mm 0.00 in0.0 mm 0.00 in0.0 mm
04:00 AM 63.3°F17.4°C 53.8°F12.1°C 71% 2.9 mph NE4.7 kmh NE 13.2 mph21.2 kmh 29.91 in1012.9 mb 0.00 in0.0 mm 0.00 in0.0 mm 0.00 in0.0 mm
03:45 AM 63.5°F17.5°C 53.9°F12.2°C 71% 2.2 mph ENE3.5 kmh ENE 7.8 mph12.6 kmh 29.91 in1012.9 mb 0.00 in0.0 mm 0.00 in0.0 mm 0.00 in0.0 mm
03:30 AM 63.7°F17.6°C 54.1°F12.3°C 71% 3.6 mph NE5.8 kmh NE 14.8 mph23.8 kmh 29.91 in1012.9 mb 0.00 in0.0 mm 0.00 in0.0 mm 0.00 in0.0 mm
03:15 AM 63.3°F17.4°C 54.1°F12.3°C 72% 2.9 mph SW4.7 kmh SW 11.2 mph18.0 kmh 29.91 in1012.9 mb 0.00 in0.0 mm 0.00 in0.0 mm 0.00 in0.0 mm
03:00 AM 63.1°F17.3°C 54.3°F12.4°C 73% 3.0 mph NE4.8 kmh NE 12.8 mph20.6 kmh 29.91 in1012.9 mb 0.00 in0.0 mm 0.00 in0.0 mm 0.00 in0.0 mm
02:45 AM 63.1°F17.3°C 54.7°F12.6°C 74% 3.5 mph N5.6 kmh N 9.8 mph15.8 kmh 29.91 in1012.9 mb 0.00 in0.0 mm 0.00 in0.0 mm 0.00 in0.0 mm
02:30 AM 63.1°F17.3°C 55.1°F12.8°C 75% 2.2 mph N3.5 kmh N 8.9 mph14.3 kmh 29.91 in1012.9 mb 0.00 in0.0 mm 0.00 in0.0 mm 0.00 in0.0 mm
02:15 AM 62.8°F17.1°C 54.7°F12.6°C 75% 2.0 mph NNW3.2 kmh NNW 7.4 mph11.9 kmh 29.91 in1012.9 mb 0.00 in0.0 mm 0.00 in0.0 mm 0.00 in0.0 mm
02:00 AM 62.4°F16.9°C 55.1°F12.8°C 77% 2.7 mph SSW4.3 kmh SSW 6.5 mph10.5 kmh 29.91 in1012.9 mb 0.00 in0.0 mm 0.00 in0.0 mm 0.00 in0.0 mm
01:45 AM 62.4°F16.9°C 55.1°F12.8°C 77% 3.1 mph SSW5.0 kmh SSW 6.0 mph9.7 kmh 29.91 in1012.9 mb 0.00 in0.0 mm 0.00 in0.0 mm 0.00 in0.0 mm
01:30 AM 62.4°F16.9°C 55.1°F12.8°C 77% 2.5 mph SW4.0 kmh SW 6.7 mph10.8 kmh 29.92 in1013.2 mb 0.00 in0.0 mm 0.00 in0.0 mm 0.00 in0.0 mm
01:15 AM 62.2°F16.8°C 55.3°F12.9°C 78% 2.2 mph SW3.5 kmh SW 7.2 mph11.6 kmh 29.92 in1013.2 mb 0.00 in0.0 mm 0.00 in0.0 mm 0.00 in0.0 mm
01:00 AM 62.4°F16.9°C 55.5°F13.1°C 78% 3.1 mph SW5.0 kmh SW 6.9 mph11.1 kmh 29.92 in1013.2 mb 0.00 in0.0 mm 0.00 in0.0 mm 0.00 in0.0 mm
12:45 AM 62.4°F16.9°C 55.5°F13.1°C 78% 2.3 mph S3.7 kmh S 10.1 mph16.3 kmh 29.92 in1013.2 mb 0.00 in0.0 mm 0.00 in0.0 mm 0.00 in0.0 mm
12:30 AM 62.2°F16.8°C 55.6°F13.1°C 79% 1.7 mph SE2.7 kmh SE 9.2 mph14.8 kmh 29.92 in1013.2 mb 0.00 in0.0 mm 0.00 in0.0 mm 0.00 in0.0 mm
12:15 AM 62.4°F16.9°C 55.8°F13.2°C 79% 1.1 mph NW1.8 kmh NW 4.7 mph7.6 kmh 29.92 in1013.2 mb 0.00 in0.0 mm 0.00 in0.0 mm 0.00 in0.0 mm
12:00 AM 62.2°F16.8°C 56.0°F13.3°C 80% 1.3 mph WNW2.1 kmh WNW 5.6 mph9.0 kmh 29.92 in1013.2 mb 0.00 in0.0 mm 0.00 in0.0 mm 0.00 in0.0 mm